Terminal Aerodrome Forecast
Issued by NWS

Home | Current Version | Previous Version | Text Only | Print | Product List | Glossary On
Versions: 1 2 3 4 5 6 7 8 9 10 11 12 13 14 15 16 17 18 19
119
FTUS45 KTFX 131242 AAA
TAFCTB
TAF AMD
KCTB 131242Z 1313/1412 25025G37KT P6SM SCT060 BKN120
     FM131600 27028G45KT P6SM SCT070 BKN150
     FM140200 26022G32KT P6SM BKN150=

USA.gov is the U.S. government's official web portal to all federal, state and local government web resources and services.